Terminal Aerodrome Forecast
Issued by NWS

Home | Current Version | Previous Version | Graphics & Text | Print | Product List | Glossary On
Versions: 1 2 3 4 5 6 7 8 9 10 11 12 13 14 15 16 17 18 19 20
832
FTUS43 KMPX 300808 AAA
TAFRWF
TAF AMD
KRWF 300808Z 3008/0106 30012KT P6SM -RASN SCT004 OVC008
     FM301200 31008KT 3SM -RASN BR OVC005
     FM301800 32010KT 3SM -RASN BR OVC009
     FM302300 32008KT 5SM BR OVC006=

USA.gov is the U.S. government's official web portal to all federal, state and local government web resources and services.